Aeroporto :
LOGIN :

Iscrizione | Disclaimer

   EN    FR    IT 

 










Sommario :    VFR   VFR Marginale   IFR   IFR Intensivo   IFR Molto Intensivo
Visibilità : 
Base nubi : 
>= 8 km
>= 3000ft
5 / 8 km
1000 / 3000 ft
1500m / 5 km
500 / 1000 ft
800 / 1500m
200 / 500 ft
< 800m
< 200 ft
Simboli :   Temporali  Nebbia  Neve Forte  Precipitazioni Forti  Vento > 20 kt
SIGMETs :   Varie  Temporali  Ghiacco  Turbolenza  Onda orograficha  Ceneri Vulcaniche







- Altitudine del aeroporto : 11 ft
- Codice IATA : MJV


LELC - Murcia San Javier

ULTIMO METAR :
  • 191700Z 16005KT 140V200 CAVOK 21/12 Q1013 NOSIG

METARs OBSOLETI :
  • 191630Z 14006KT 110V180 CAVOK 21/13 Q1013 NOSIG
  • 191600Z 15008KT 110V190 9999 FEW054 22/13 Q1012 NOSIG
  • 191530Z 14010KT 110V170 9999 FEW054 22/12 Q1012 NOSIG
  • 191500Z 11006KT 080V180 9999 FEW054 23/11 Q1012 NOSIG
  • 191430Z 12007KT 090V150 9999 FEW035 23/13 Q1012 NOSIG

TAF TAF LELC
Valido dal 19 a 12 ore il 20 a 12 ore UTC


191100Z 1912/2012 10006KT 9999 SCT025 TX23/1913Z TN17/2006Z
BECMG 2000/2003 04012KT
TEMPO 1923/2010 4000 SHRA BKN020TCU
PROB40
TEMPO 2000/2009 2000 TSRA SCT010 BKN020CB
TEMPO 2001/2012 05018G28KT
Nessun NOTAM noto per questo aeroporto.
1 SIGMET conosciuto per la FIR Barcelona (LECB) :
 
Temporali affogati
LECB SIGMET 12 VALID 191700/191900 LEVA
LECB BARCELONA FIR/UIR EMBD TS OBS AT 1658Z WI N4032 W00041 - N3940 E00201 - N4009 E00347 - N4121 E00245 - N4032 W00041 TOP FL380 MOV N 5KT NC=



MetMap, La meteo Aeronautica in un colpo d'occhio ! - Copyright ORBIFLY Dicembre 2007 - Disclaimer

ORBIFLY MET'MAP TEAM :

Programmazione e sviluppo : Alexandra Zaïnal
Concezione e sviluppo : Baudouin d'Aumeries
Co-Programmazione e sviluppo : Marc-Olivier Méhu
Supporto tecnico e logistico : Manuel Goepfert
Aiuto per la traduzione : Arnaldo La Scala

Contatto : metmap@orbifly.com




FONTI E CREDITI :

   NOAA